createdAt,value
2019-02-19T00:01:06.275Z,48.00
2019-02-19T00:03:34.553Z,48.95
2019-02-19T00:06:02.852Z,52.90
2019-02-19T00:08:31.170Z,53.27
2019-02-19T00:10:59.471Z,51.70
2019-02-19T00:13:27.683Z,51.10
2019-02-19T00:15:55.892Z,48.55
2019-02-19T00:18:24.156Z,50.20
2019-02-19T00:20:52.407Z,41.97
2019-02-19T00:23:20.675Z,47.93
2019-02-19T00:25:48.916Z,53.80
2019-02-19T00:28:17.254Z,50.10
2019-02-19T00:30:45.528Z,52.90
2019-02-19T00:33:13.777Z,50.50
2019-02-19T00:35:42.085Z,58.00
2019-02-19T00:38:10.399Z,47.43
2019-02-19T00:40:38.641Z,46.43
2019-02-19T00:43:06.962Z,45.20
2019-02-19T00:45:35.240Z,42.50
2019-02-19T00:48:03.509Z,47.47
2019-02-19T00:50:31.709Z,49.20
2019-02-19T00:52:59.956Z,43.60
2019-02-19T00:55:28.195Z,47.27
2019-02-19T00:57:56.465Z,39.07
2019-02-19T01:00:24.771Z,35.20
2019-02-19T01:02:53.049Z,49.03
2019-02-19T01:05:21.274Z,47.00
2019-02-19T01:07:49.517Z,41.00
2019-02-19T01:10:17.800Z,40.37
2019-02-19T01:12:46.050Z,42.93
2019-02-19T01:15:14.380Z,41.57
2019-02-19T01:17:42.562Z,42.70
2019-02-19T01:20:10.823Z,39.63
2019-02-19T01:22:39.037Z,45.80
2019-02-19T01:25:07.757Z,37.57
2019-02-19T01:27:36.197Z,37.00
2019-02-19T01:30:05.957Z,36.90
2019-02-19T01:32:34.191Z,42.20
2019-02-19T01:35:02.382Z,43.27
2019-02-19T01:37:30.629Z,38.23
2019-02-19T01:39:58.859Z,40.27
2019-02-19T01:42:27.107Z,45.37
2019-02-19T01:44:55.331Z,45.00
2019-02-19T01:47:24.991Z,41.13
2019-02-19T01:52:20.595Z,42.50
2019-02-19T01:57:16.187Z,39.37
2019-02-19T01:59:44.383Z,38.70
2019-02-19T02:02:12.649Z,42.43
2019-02-19T02:04:40.849Z,38.90
2019-02-19T02:07:09.069Z,43.17
2019-02-19T02:09:37.332Z,41.23
2019-02-19T02:12:05.553Z,40.90
2019-02-19T02:14:33.768Z,36.60
2019-02-19T02:17:01.993Z,40.73
2019-02-19T02:19:30.281Z,37.05
2019-02-19T02:21:58.477Z,41.15
2019-02-19T02:24:26.698Z,37.40
2019-02-19T02:26:54.937Z,34.10
2019-02-19T02:31:50.700Z,34.30
2019-02-19T02:34:19.812Z,35.15
2019-02-19T02:44:10.185Z,37.10
2019-02-19T02:46:38.406Z,35.05
2019-02-19T02:49:06.633Z,34.60
2019-02-19T02:51:34.849Z,30.20
2019-02-19T02:54:03.061Z,42.25
2019-02-19T02:56:31.289Z,33.00
2019-02-19T02:58:59.542Z,37.13
2019-02-19T03:01:27.760Z,39.73
2019-02-19T03:03:55.981Z,34.63
2019-02-19T03:06:28.477Z,34.47
2019-02-19T03:08:56.689Z,39.57
2019-02-19T03:11:24.944Z,31.50
2019-02-19T03:13:53.123Z,30.70
2019-02-19T03:16:21.307Z,31.23
2019-02-19T03:18:49.562Z,40.27
2019-02-19T03:21:17.775Z,34.70
2019-02-19T03:23:46.069Z,42.30
2019-02-19T03:26:14.257Z,30.70
2019-02-19T03:28:42.481Z,32.10
2019-02-19T03:31:10.875Z,32.93
2019-02-19T03:33:39.132Z,27.13
2019-02-19T03:36:07.377Z,34.07
2019-02-19T03:38:35.561Z,35.40
2019-02-19T03:41:03.779Z,33.27
2019-02-19T03:43:31.964Z,34.53
2019-02-19T03:46:00.221Z,35.83
2019-02-19T03:48:28.407Z,32.90
2019-02-19T03:50:56.621Z,33.60
2019-02-19T03:53:24.836Z,35.37
2019-02-19T03:55:53.024Z,42.33
2019-02-19T03:58:21.245Z,27.70
2019-02-19T04:00:49.465Z,35.83
2019-02-19T04:03:17.687Z,36.50
2019-02-19T04:05:45.969Z,31.93
2019-02-19T04:08:14.193Z,36.37
2019-02-19T04:10:42.375Z,33.63
2019-02-19T04:13:10.590Z,34.90
2019-02-19T04:15:38.977Z,31.37
2019-02-19T04:18:07.208Z,35.30
2019-02-19T04:20:35.419Z,29.00
2019-02-19T04:23:03.632Z,33.00
2019-02-19T04:25:31.850Z,31.63
2019-02-19T04:28:00.087Z,32.10
2019-02-19T04:30:34.477Z,34.17
2019-02-19T04:33:02.699Z,30.63
2019-02-19T04:35:30.914Z,32.10
2019-02-19T04:37:59.204Z,30.80
2019-02-19T04:40:27.425Z,27.90
2019-02-19T04:42:55.636Z,27.55
2019-02-19T04:45:23.881Z,32.70
2019-02-19T04:47:52.128Z,31.57
2019-02-19T04:50:20.345Z,32.37
2019-02-19T04:52:48.528Z,28.90
2019-02-19T04:55:16.786Z,33.23
2019-02-19T04:57:44.992Z,32.30
2019-02-19T05:00:13.545Z,33.80
2019-02-19T05:02:41.768Z,30.23
2019-02-19T05:05:10.192Z,29.87
2019-02-19T05:07:38.424Z,34.47
2019-02-19T05:10:07.621Z,33.93
2019-02-19T05:12:35.901Z,30.13
2019-02-19T05:15:05.659Z,31.27
2019-02-19T05:17:33.843Z,32.50
2019-02-19T05:20:02.109Z,33.33
2019-02-19T05:22:30.348Z,33.05
2019-02-19T05:24:58.585Z,34.23
2019-02-19T05:27:26.768Z,39.23
2019-02-19T05:29:54.989Z,27.30
2019-02-19T05:32:23.233Z,28.70
2019-02-19T05:34:51.449Z,30.57
2019-02-19T05:37:19.689Z,33.70
2019-02-19T05:39:47.876Z,33.40
2019-02-19T05:42:16.080Z,35.17
2019-02-19T05:44:44.271Z,34.53
2019-02-19T05:47:12.460Z,35.75
2019-02-19T05:49:40.674Z,32.83
2019-02-19T05:54:36.284Z,28.07
2019-02-19T05:57:04.509Z,29.07
2019-02-19T05:59:32.756Z,29.20
2019-02-19T06:02:00.977Z,28.67
2019-02-19T06:04:29.207Z,28.80
2019-02-19T06:06:57.401Z,34.17
2019-02-19T06:09:25.620Z,33.20
2019-02-19T06:11:53.833Z,32.77
2019-02-19T06:14:22.093Z,29.77
2019-02-19T06:16:58.086Z,36.80
2019-02-19T06:19:20.201Z,34.33
2019-02-19T06:21:48.437Z,30.33
2019-02-19T06:24:16.674Z,29.67
2019-02-19T06:26:44.965Z,31.70
2019-02-19T06:29:13.148Z,33.00
2019-02-19T06:31:41.370Z,34.80
2019-02-19T06:34:09.569Z,31.50
2019-02-19T06:36:37.753Z,32.47
2019-02-19T06:39:06.173Z,30.87
2019-02-19T06:41:34.388Z,35.33
2019-02-19T06:44:02.632Z,31.13
2019-02-19T06:46:30.821Z,32.47
2019-02-19T06:48:59.072Z,31.20
2019-02-19T06:51:27.300Z,33.03
2019-02-19T06:53:55.537Z,29.47
2019-02-19T06:56:23.745Z,27.20
2019-02-19T06:58:51.920Z,32.30
2019-02-19T07:01:21.794Z,27.80
2019-02-19T07:03:57.746Z,32.77
2019-02-19T07:06:25.981Z,31.93
2019-02-19T07:08:54.205Z,28.70
2019-02-19T07:11:22.419Z,32.90
2019-02-19T07:13:50.627Z,30.33
2019-02-19T07:16:18.845Z,30.63
2019-02-19T07:18:47.089Z,30.90
2019-02-19T07:21:15.297Z,29.10
2019-02-19T07:23:43.525Z,32.60
2019-02-19T07:26:11.708Z,32.87
2019-02-19T07:28:39.908Z,30.90
2019-02-19T07:31:08.138Z,31.60
2019-02-19T07:33:36.312Z,33.47
2019-02-19T07:36:04.567Z,28.23
2019-02-19T07:38:33.674Z,32.60
2019-02-19T07:41:01.969Z,33.40
2019-02-19T07:43:30.215Z,33.00
2019-02-19T07:48:45.838Z,27.65
2019-02-19T07:53:41.412Z,30.43
2019-02-19T07:56:09.664Z,30.10
2019-02-19T08:05:59.893Z,25.70
2019-02-19T08:08:28.144Z,25.00
2019-02-19T08:15:51.391Z,29.43
2019-02-19T08:18:19.649Z,27.65
2019-02-19T08:20:47.838Z,30.37
2019-02-19T08:28:10.800Z,30.97
2019-02-19T08:30:39.023Z,28.27
2019-02-19T08:33:07.247Z,26.77
2019-02-19T08:35:35.424Z,31.15
2019-02-19T08:38:03.607Z,31.80
2019-02-19T08:40:31.861Z,31.20
2019-02-19T08:43:00.082Z,30.90
2019-02-19T08:45:28.326Z,34.20
2019-02-19T08:47:56.538Z,29.00
2019-02-19T08:50:24.831Z,30.23
2019-02-19T08:52:53.045Z,28.10
2019-02-19T08:55:21.236Z,30.03
2019-02-19T08:57:49.444Z,34.77
2019-02-19T09:00:17.690Z,27.50
2019-02-19T09:02:45.905Z,29.53
2019-02-19T09:05:14.169Z,27.27
2019-02-19T09:07:42.452Z,27.80
2019-02-19T09:10:11.355Z,25.50
2019-02-19T09:12:39.642Z,32.13
2019-02-19T09:15:11.033Z,28.33
2019-02-19T09:17:39.080Z,31.97
2019-02-19T09:20:07.936Z,28.40
2019-02-19T09:22:36.160Z,30.07
2019-02-19T09:25:05.618Z,28.73
2019-02-19T09:27:33.869Z,29.33
2019-02-19T09:30:02.085Z,32.90
2019-02-19T09:32:30.307Z,27.80
2019-02-19T09:34:58.520Z,29.60
2019-02-19T09:39:54.176Z,30.63
2019-02-19T09:42:22.394Z,33.90
2019-02-19T09:44:50.610Z,31.90
2019-02-19T09:47:18.801Z,31.95
2019-02-19T09:49:47.049Z,29.77
2019-02-19T09:52:15.313Z,37.05
2019-02-19T09:54:43.532Z,32.50
2019-02-19T09:57:11.744Z,36.90
2019-02-19T10:02:07.341Z,36.50
2019-02-19T10:04:35.555Z,37.40
2019-02-19T10:07:03.744Z,40.00
2019-02-19T10:09:31.961Z,41.07
2019-02-19T10:14:27.537Z,44.45
2019-02-19T10:16:55.740Z,45.17
2019-02-19T10:19:23.928Z,46.93
2019-02-19T10:21:52.157Z,43.10
2019-02-19T10:24:20.373Z,45.80
2019-02-19T10:26:49.712Z,43.00
2019-02-19T10:29:18.095Z,43.47
2019-02-19T10:31:46.282Z,41.57
2019-02-19T10:34:14.460Z,46.10
2019-02-19T10:36:42.693Z,46.83
2019-02-19T10:39:11.580Z,46.03
2019-02-19T10:41:39.801Z,39.93
2019-02-19T10:44:08.029Z,44.10
2019-02-19T10:46:36.241Z,46.17
2019-02-19T10:49:04.460Z,48.67
2019-02-19T10:51:32.682Z,47.00
2019-02-19T10:54:00.902Z,45.57
2019-02-19T10:56:29.151Z,44.93
2019-02-19T10:58:57.360Z,40.30
2019-02-19T11:01:25.579Z,42.67
2019-02-19T11:03:53.804Z,42.20
2019-02-19T11:06:22.055Z,41.87
2019-02-19T11:08:50.304Z,42.33
2019-02-19T11:11:18.494Z,44.40
2019-02-19T11:13:46.688Z,44.33
2019-02-19T11:16:14.963Z,43.60
2019-02-19T11:18:43.246Z,41.87
2019-02-19T11:21:19.396Z,45.93
2019-02-19T11:23:41.336Z,39.73
2019-02-19T11:26:09.550Z,40.90
2019-02-19T11:28:37.773Z,46.97
2019-02-19T11:31:06.003Z,39.87
2019-02-19T11:33:34.195Z,45.10
2019-02-19T11:36:02.380Z,39.60
2019-02-19T11:38:30.616Z,39.40
2019-02-19T11:40:58.792Z,45.30
2019-02-19T11:43:27.040Z,39.20
2019-02-19T11:45:55.242Z,36.73
2019-02-19T11:48:23.420Z,33.93
2019-02-19T11:50:51.653Z,35.70
2019-02-19T11:53:20.036Z,38.67
2019-02-19T11:55:48.285Z,34.70
2019-02-19T11:58:16.507Z,38.23
2019-02-19T12:00:45.835Z,44.67
2019-02-19T12:03:14.024Z,35.13
2019-02-19T12:05:42.245Z,35.53
2019-02-19T12:08:10.518Z,33.97
2019-02-19T12:10:38.789Z,40.87
2019-02-19T12:13:06.980Z,30.63
2019-02-19T12:15:35.639Z,30.33
2019-02-19T12:18:04.032Z,39.57
2019-02-19T12:20:32.241Z,34.40
2019-02-19T12:23:00.484Z,38.00
2019-02-19T12:25:28.702Z,32.20
2019-02-19T12:27:56.952Z,35.60
2019-02-19T12:30:25.159Z,37.03
2019-02-19T12:32:53.409Z,40.00
2019-02-19T12:35:21.598Z,35.30
2019-02-19T12:37:49.783Z,35.17
2019-02-19T12:40:18.057Z,36.10
2019-02-19T12:42:46.270Z,33.80
2019-02-19T12:45:14.862Z,36.70
2019-02-19T12:47:43.122Z,36.27
2019-02-19T12:50:12.573Z,34.83
2019-02-19T12:52:40.755Z,32.40
2019-02-19T12:55:09.443Z,30.10
2019-02-19T12:57:37.690Z,39.17
2019-02-19T13:00:07.776Z,35.47
2019-02-19T13:02:36.036Z,36.47
2019-02-19T13:05:04.985Z,37.37
2019-02-19T13:07:33.204Z,37.23
2019-02-19T13:10:01.391Z,37.00
2019-02-19T13:12:29.625Z,39.73
2019-02-19T13:14:57.805Z,37.10
2019-02-19T13:17:26.024Z,39.23
2019-02-19T13:19:54.215Z,37.23
2019-02-19T13:22:22.412Z,38.37
2019-02-19T13:24:50.629Z,38.30
2019-02-19T13:27:19.758Z,32.73
2019-02-19T13:29:47.982Z,34.30
2019-02-19T13:32:16.165Z,39.10
2019-02-19T13:34:44.393Z,33.53
2019-02-19T13:37:12.588Z,44.70
2019-02-19T13:39:40.780Z,35.77
2019-02-19T13:42:09.034Z,36.17
2019-02-19T13:44:37.250Z,38.17
2019-02-19T13:47:05.436Z,34.50
2019-02-19T13:49:33.690Z,33.27
2019-02-19T13:52:03.537Z,30.13
2019-02-19T13:54:31.751Z,27.47
2019-02-19T13:56:59.969Z,30.23
2019-02-19T13:59:28.182Z,36.40
2019-02-19T14:01:56.425Z,28.23
2019-02-19T14:04:24.647Z,33.50
2019-02-19T14:06:52.853Z,33.33
2019-02-19T14:09:21.069Z,29.40
2019-02-19T14:11:49.305Z,26.47
2019-02-19T14:14:22.092Z,29.63
2019-02-19T14:16:52.200Z,26.43
2019-02-19T14:19:22.388Z,23.70
2019-02-19T14:21:52.224Z,28.83
2019-02-19T14:24:22.045Z,30.10
2019-02-19T14:27:08.343Z,26.70
2019-02-19T14:29:54.564Z,24.90
2019-02-19T14:32:24.428Z,25.50
2019-02-19T14:35:09.311Z,27.70
2019-02-19T14:37:55.691Z,29.30
2019-02-19T14:40:42.357Z,25.77
2019-02-19T14:43:12.191Z,24.03
2019-02-19T14:45:42.045Z,24.80
2019-02-19T14:48:24.189Z,21.43
2019-02-19T14:51:05.788Z,19.03
2019-02-19T14:53:35.639Z,23.50
2019-02-19T14:56:14.277Z,27.40
2019-02-19T14:58:44.140Z,24.10
2019-02-19T15:01:13.974Z,25.73
2019-02-19T15:03:52.680Z,30.07
2019-02-19T15:06:28.569Z,28.40
2019-02-19T15:09:01.063Z,25.83
2019-02-19T15:11:36.892Z,27.17
2019-02-19T15:14:06.759Z,25.80
2019-02-19T15:16:45.609Z,25.00
2019-02-19T15:19:24.257Z,26.20
2019-02-19T15:21:56.985Z,25.17
2019-02-19T15:24:32.993Z,25.70
2019-02-19T15:27:05.431Z,25.80
2019-02-19T15:29:51.893Z,29.53
2019-02-19T15:32:24.424Z,26.70
2019-02-19T15:35:00.009Z,27.50
2019-02-19T15:37:38.872Z,27.13
2019-02-19T15:40:25.529Z,21.47
2019-02-19T15:42:55.364Z,22.03
2019-02-19T15:45:25.253Z,27.30
2019-02-19T15:48:03.934Z,27.53
2019-02-19T15:50:36.804Z,23.13
2019-02-19T15:53:06.625Z,25.23
2019-02-19T15:55:36.483Z,20.60
2019-02-19T15:58:12.093Z,21.57
2019-02-19T16:00:43.044Z,22.77
2019-02-19T16:03:18.781Z,21.83
2019-02-19T16:05:48.642Z,20.27
2019-02-19T16:08:21.491Z,17.40
2019-02-19T16:10:54.009Z,18.20
2019-02-19T16:13:29.836Z,21.10
2019-02-19T16:16:08.636Z,21.90
2019-02-19T16:18:54.872Z,24.40
2019-02-19T16:21:33.895Z,19.17
2019-02-19T16:24:12.757Z,19.10
2019-02-19T16:26:45.298Z,18.70
2019-02-19T16:29:21.009Z,19.93
2019-02-19T16:31:53.716Z,16.83
2019-02-19T16:34:26.195Z,16.93
2019-02-19T16:36:56.057Z,18.10
2019-02-19T16:39:25.872Z,16.20
2019-02-19T16:42:04.935Z,18.17
2019-02-19T16:44:47.026Z,19.53
2019-02-19T16:47:16.884Z,20.60
2019-02-19T16:49:49.333Z,15.20
2019-02-19T16:52:19.222Z,15.77
2019-02-19T16:54:54.841Z,19.62
2019-02-19T16:57:27.500Z,15.60
2019-02-19T17:00:00.010Z,16.20
2019-02-19T17:02:47.968Z,18.97
2019-02-19T17:05:20.221Z,17.33
2019-02-19T17:08:02.228Z,17.10
2019-02-19T17:10:47.377Z,13.93
2019-02-19T17:13:17.242Z,14.13
2019-02-19T17:15:52.998Z,13.43
2019-02-19T17:18:23.185Z,18.80
2019-02-19T17:20:53.170Z,14.37
2019-02-19T17:23:39.033Z,16.30
2019-02-19T17:26:14.565Z,15.33
2019-02-19T17:29:01.019Z,19.57
2019-02-19T17:31:33.983Z,13.70
2019-02-19T17:34:09.725Z,16.07
2019-02-19T17:36:54.553Z,18.67
2019-02-19T17:39:36.393Z,15.37
2019-02-19T17:42:12.351Z,15.27
2019-02-19T17:44:57.511Z,12.43
2019-02-19T17:47:30.473Z,11.23
2019-02-19T17:50:17.145Z,11.73
2019-02-19T17:53:06.627Z,14.30
2019-02-19T17:55:42.206Z,14.93
2019-02-19T17:58:12.059Z,10.03
2019-02-19T18:00:44.934Z,14.40
2019-02-19T18:03:26.735Z,12.10
2019-02-19T18:06:02.306Z,10.87
2019-02-19T18:08:34.795Z,10.80
2019-02-19T18:11:04.641Z,9.10
2019-02-19T18:13:37.517Z,11.73
2019-02-19T18:16:19.594Z,8.23
2019-02-19T18:18:49.121Z,9.97
2019-02-19T18:21:17.385Z,8.93
2019-02-19T18:23:45.585Z,9.17
2019-02-19T18:26:13.789Z,8.47
2019-02-19T18:28:42.001Z,8.40
2019-02-19T18:31:10.476Z,7.80
2019-02-19T18:33:38.677Z,9.80
2019-02-19T18:36:06.923Z,8.20
2019-02-19T18:38:35.105Z,9.80
2019-02-19T18:41:03.966Z,8.30
2019-02-19T18:43:32.145Z,8.53
2019-02-19T18:46:00.361Z,9.53
2019-02-19T18:48:28.531Z,7.83
2019-02-19T18:50:58.443Z,10.03
2019-02-19T18:53:26.826Z,8.60
2019-02-19T18:55:55.030Z,8.30
2019-02-19T18:58:23.264Z,10.90
2019-02-19T19:00:51.509Z,8.50
2019-02-19T19:03:19.741Z,12.63
2019-02-19T19:05:47.984Z,15.67
2019-02-19T19:08:16.176Z,11.20
2019-02-19T19:10:44.356Z,6.30
2019-02-19T19:13:12.577Z,11.40
2019-02-19T19:15:40.748Z,7.20
2019-02-19T19:18:08.989Z,10.67
2019-02-19T19:20:37.287Z,9.53
2019-02-19T19:23:05.527Z,10.40
2019-02-19T19:25:33.724Z,9.43
2019-02-19T19:28:02.118Z,13.17
2019-02-19T19:30:30.397Z,10.60
2019-02-19T19:32:58.659Z,12.97
2019-02-19T19:35:26.868Z,8.80
2019-02-19T19:37:55.107Z,11.83
2019-02-19T19:40:23.369Z,10.77
2019-02-19T19:42:51.570Z,12.80
2019-02-19T19:45:19.793Z,11.67
2019-02-19T19:47:47.999Z,13.77
2019-02-19T19:50:16.184Z,14.00
2019-02-19T19:52:44.401Z,14.90
2019-02-19T19:55:12.669Z,12.40
2019-02-19T19:57:40.851Z,15.07
2019-02-19T20:00:10.627Z,13.70
2019-02-19T20:02:39.197Z,14.70
2019-02-19T20:05:08.435Z,13.77
2019-02-19T20:07:36.652Z,15.77
2019-02-19T20:10:06.362Z,9.25
2019-02-19T20:12:34.539Z,12.20
2019-02-19T20:15:02.741Z,13.40
2019-02-19T20:19:58.421Z,17.50
2019-02-19T20:22:26.634Z,13.75
2019-02-19T20:24:54.889Z,16.05
2019-02-19T20:27:23.158Z,16.70
2019-02-19T20:29:51.402Z,13.90
2019-02-19T20:32:19.609Z,17.00
2019-02-19T20:34:47.788Z,14.87
2019-02-19T20:37:16.040Z,18.07
2019-02-19T20:39:44.261Z,14.20
2019-02-19T20:42:12.467Z,19.07
2019-02-19T20:44:40.725Z,13.43
2019-02-19T20:47:09.022Z,14.53
2019-02-19T20:49:37.238Z,13.90
2019-02-19T20:52:05.449Z,17.23
2019-02-19T20:54:33.654Z,14.97
2019-02-19T20:57:01.909Z,13.17
2019-02-19T20:59:30.160Z,13.20
2019-02-19T21:01:58.409Z,18.83
2019-02-19T21:04:26.590Z,12.70
2019-02-19T21:06:54.806Z,12.17
2019-02-19T21:09:22.998Z,14.03
2019-02-19T21:11:51.167Z,14.03
2019-02-19T21:14:19.392Z,16.70
2019-02-19T21:16:47.669Z,13.23
2019-02-19T21:19:15.880Z,15.17
2019-02-19T21:21:45.195Z,14.70
2019-02-19T21:24:13.567Z,15.20
2019-02-19T21:26:41.844Z,15.07
2019-02-19T21:29:10.150Z,16.93
2019-02-19T21:31:40.282Z,14.53
2019-02-19T21:34:08.407Z,16.27
2019-02-19T21:36:36.561Z,12.57
2019-02-19T21:39:05.540Z,15.33
2019-02-19T21:41:33.725Z,15.27
2019-02-19T21:44:01.933Z,16.23
2019-02-19T21:46:30.198Z,19.53
2019-02-19T21:48:58.380Z,12.37
2019-02-19T21:51:26.658Z,15.50
2019-02-19T21:53:54.885Z,13.40
2019-02-19T21:56:23.104Z,13.07
2019-02-19T21:58:51.295Z,15.87
2019-02-19T22:01:19.601Z,13.67
2019-02-19T22:03:47.800Z,16.37
2019-02-19T22:06:16.046Z,9.70
2019-02-19T22:08:44.249Z,14.33
2019-02-19T22:11:12.454Z,15.37
2019-02-19T22:13:40.664Z,10.27
2019-02-19T22:16:08.840Z,9.77
2019-02-19T22:18:37.174Z,13.97
2019-02-19T22:21:09.705Z,13.10
2019-02-19T22:23:37.913Z,9.40
2019-02-19T22:26:06.091Z,11.77
2019-02-19T22:28:34.326Z,9.63
2019-02-19T22:31:02.654Z,11.57
2019-02-19T22:33:30.954Z,17.83
2019-02-19T22:35:59.135Z,6.37
2019-02-19T22:38:27.372Z,5.53
2019-02-19T22:40:55.618Z,6.60
2019-02-19T22:43:23.938Z,11.67
2019-02-19T22:45:52.111Z,7.50
2019-02-19T22:48:20.328Z,6.93
2019-02-19T22:50:48.626Z,7.93
2019-02-19T22:53:33.309Z,8.63
2019-02-19T22:56:03.155Z,10.97
2019-02-19T22:58:31.325Z,8.50
2019-02-19T23:01:01.167Z,9.13
2019-02-19T23:03:29.416Z,11.07
2019-02-19T23:05:57.632Z,10.60
2019-02-19T23:08:25.840Z,10.20
2019-02-19T23:10:54.126Z,12.50
2019-02-19T23:13:22.357Z,10.60
2019-02-19T23:15:50.602Z,11.87
2019-02-19T23:18:18.796Z,9.53
2019-02-19T23:20:47.039Z,9.30
2019-02-19T23:23:15.224Z,11.35
2019-02-19T23:25:43.419Z,12.97
2019-02-19T23:28:11.676Z,13.37
2019-02-19T23:30:39.893Z,12.60
2019-02-19T23:33:08.205Z,13.93
2019-02-19T23:35:40.780Z,15.10
2019-02-19T23:38:09.024Z,13.37
2019-02-19T23:40:37.746Z,12.57
2019-02-19T23:43:06.014Z,14.90
2019-02-19T23:45:34.221Z,14.73
2019-02-19T23:48:02.485Z,18.40
2019-02-19T23:50:30.692Z,18.07
2019-02-19T23:52:58.937Z,12.97
2019-02-19T23:55:27.112Z,14.00
2019-02-19T23:57:55.413Z,17.00
